createdAt,value
2023-05-14T00:00:36.722Z,23
2023-05-14T00:03:09.005Z,24
2023-05-14T00:05:39.985Z,24
2023-05-14T00:08:11.098Z,21
2023-05-14T00:10:41.709Z,32
2023-05-14T00:13:12.301Z,21
2023-05-14T00:15:43.067Z,28
2023-05-14T00:18:13.934Z,20
2023-05-14T00:20:44.489Z,27
2023-05-14T00:23:15.084Z,24
2023-05-14T00:25:45.825Z,24
2023-05-14T00:28:16.384Z,19
2023-05-14T00:30:47.066Z,20
2023-05-14T00:33:17.398Z,23
2023-05-14T00:35:48.174Z,20
2023-05-14T00:38:18.938Z,20
2023-05-14T00:40:49.748Z,16
2023-05-14T00:43:21.367Z,20
2023-05-14T00:45:52.417Z,16
2023-05-14T00:48:22.834Z,16
2023-05-14T00:50:53.665Z,16
2023-05-14T00:53:24.969Z,16
2023-05-14T00:55:55.797Z,16
2023-05-14T00:58:25.996Z,16
2023-05-14T01:00:56.888Z,12
2023-05-14T01:03:28.514Z,16
2023-05-14T01:05:59.789Z,14
2023-05-14T01:08:30.456Z,16
2023-05-14T01:11:00.955Z,13
2023-05-14T01:13:31.962Z,16
2023-05-14T01:16:02.597Z,16
2023-05-14T01:18:33.527Z,12
2023-05-14T01:21:04.702Z,18
2023-05-14T01:23:35.665Z,16
2023-05-14T01:26:06.790Z,16
2023-05-14T01:28:38.088Z,12
2023-05-14T01:31:08.864Z,12
2023-05-14T01:33:40.320Z,16
2023-05-14T01:36:11.542Z,13
2023-05-14T01:38:42.314Z,12
2023-05-14T01:41:13.138Z,8
2023-05-14T01:43:44.059Z,12
2023-05-14T01:46:14.907Z,12
2023-05-14T01:48:45.839Z,15
2023-05-14T01:51:16.655Z,12
2023-05-14T01:53:47.435Z,12
2023-05-14T01:56:18.202Z,12
2023-05-14T01:58:48.822Z,12
2023-05-14T02:01:19.361Z,12
2023-05-14T02:03:50.143Z,11
2023-05-14T02:06:21.306Z,12
2023-05-14T02:08:52.099Z,12
2023-05-14T02:11:22.815Z,13
2023-05-14T02:13:53.570Z,12
2023-05-14T02:16:24.184Z,12
2023-05-14T02:18:55.751Z,12
2023-05-14T02:21:26.323Z,12
2023-05-14T02:23:56.863Z,12
2023-05-14T02:26:27.369Z,12
2023-05-14T02:28:58.050Z,12
2023-05-14T02:31:28.908Z,12
2023-05-14T02:34:00.138Z,12
2023-05-14T02:36:31.782Z,12
2023-05-14T02:39:02.802Z,13
2023-05-14T02:41:33.857Z,8
2023-05-14T02:44:04.797Z,12
2023-05-14T02:46:35.400Z,12
2023-05-14T02:49:06.114Z,12
2023-05-14T02:51:36.675Z,13
2023-05-14T02:54:07.538Z,11
2023-05-14T02:56:38.143Z,16
2023-05-14T02:59:09.032Z,12
2023-05-14T03:01:39.822Z,12
2023-05-14T03:04:10.943Z,12
2023-05-14T03:06:42.315Z,12
2023-05-14T03:09:13.037Z,12
2023-05-14T03:11:43.866Z,12
2023-05-14T03:14:14.611Z,12
2023-05-14T03:16:45.719Z,12
2023-05-14T03:19:16.687Z,12
2023-05-14T03:21:47.201Z,12
2023-05-14T03:24:18.191Z,12
2023-05-14T03:26:48.820Z,12
2023-05-14T03:29:19.475Z,12
2023-05-14T03:31:50.316Z,12
2023-05-14T03:34:20.469Z,15
2023-05-14T03:36:51.343Z,16
2023-05-14T03:39:22.362Z,12
2023-05-14T03:41:52.503Z,13
2023-05-14T03:44:23.679Z,15
2023-05-14T03:46:54.622Z,12
2023-05-14T03:49:24.828Z,12
2023-05-14T03:51:56.347Z,16
2023-05-14T03:54:26.965Z,12
2023-05-14T03:56:57.915Z,12
2023-05-14T03:59:28.536Z,12
2023-05-14T04:01:59.495Z,16
2023-05-14T04:04:30.347Z,12
2023-05-14T04:07:01.311Z,12
2023-05-14T04:09:30.817Z,12
2023-05-14T04:12:01.730Z,12
2023-05-14T04:14:33.402Z,16
2023-05-14T04:17:04.496Z,16
2023-05-14T04:19:35.904Z,12
2023-05-14T04:22:07.660Z,16
2023-05-14T04:24:37.938Z,12
2023-05-14T04:27:08.481Z,16
2023-05-14T04:29:39.555Z,18
2023-05-14T04:32:10.612Z,15
2023-05-14T04:34:41.579Z,15
2023-05-14T04:37:13.308Z,14
2023-05-14T04:39:43.573Z,12
2023-05-14T04:42:14.386Z,16
2023-05-14T04:44:46.187Z,16
2023-05-14T04:47:17.038Z,16
2023-05-14T04:49:47.745Z,16
2023-05-14T04:52:18.358Z,16
2023-05-14T04:54:49.388Z,19
2023-05-14T04:57:19.911Z,16
2023-05-14T04:59:50.653Z,16
2023-05-14T05:02:24.145Z,16
2023-05-14T05:04:54.832Z,17
2023-05-14T05:07:24.971Z,16
2023-05-14T05:09:55.514Z,19
2023-05-14T05:12:26.504Z,16
2023-05-14T05:14:57.625Z,16
2023-05-14T05:17:28.350Z,20
2023-05-14T05:19:59.159Z,22
2023-05-14T05:22:30.665Z,16
2023-05-14T05:25:02.481Z,20
2023-05-14T05:27:32.959Z,15
2023-05-14T05:30:03.804Z,18
2023-05-14T05:32:34.604Z,27
2023-05-14T05:35:05.329Z,17
2023-05-14T05:37:36.545Z,16
2023-05-14T05:40:07.518Z,17
2023-05-14T05:42:38.204Z,16
2023-05-14T05:45:09.064Z,16
2023-05-14T05:47:40.034Z,19
2023-05-14T05:50:11.354Z,16
2023-05-14T05:52:42.528Z,18
2023-05-14T05:55:13.551Z,20
2023-05-14T05:57:44.782Z,20
2023-05-14T06:00:15.758Z,19
2023-05-14T06:02:46.666Z,20
2023-05-14T06:05:17.586Z,18
2023-05-14T06:07:47.815Z,20
2023-05-14T06:10:18.523Z,16
2023-05-14T06:12:49.722Z,20
2023-05-14T06:15:20.164Z,20
2023-05-14T06:17:50.856Z,20
2023-05-14T06:20:22.049Z,16
2023-05-14T06:22:52.926Z,20
2023-05-14T06:25:22.664Z,17
2023-05-14T06:27:53.885Z,22
2023-05-14T06:30:24.556Z,20
2023-05-14T06:32:54.959Z,19
2023-05-14T06:35:25.529Z,19
2023-05-14T06:37:56.219Z,19
2023-05-14T06:40:26.985Z,24
2023-05-14T06:42:57.585Z,20
2023-05-14T06:45:28.367Z,20
2023-05-14T06:47:59.577Z,35
2023-05-14T06:50:29.889Z,31
2023-05-14T06:53:00.803Z,24
2023-05-14T06:55:31.305Z,23
2023-05-14T06:58:01.853Z,25
2023-05-14T07:00:36.821Z,18
2023-05-14T07:03:07.688Z,24
2023-05-14T07:05:38.397Z,24
2023-05-14T07:08:09.329Z,29
2023-05-14T07:10:39.627Z,24
2023-05-14T07:13:10.661Z,36
2023-05-14T07:15:41.536Z,18
2023-05-14T07:18:12.394Z,24
2023-05-14T07:20:43.407Z,24
2023-05-14T07:23:14.694Z,30
2023-05-14T07:25:44.821Z,24
2023-05-14T07:28:15.734Z,37
2023-05-14T07:30:47.088Z,24
2023-05-14T07:33:17.990Z,24
2023-05-14T07:35:48.524Z,34
2023-05-14T07:38:19.335Z,16
2023-05-14T07:40:49.570Z,20
2023-05-14T07:43:19.862Z,27
2023-05-14T07:45:50.615Z,22
2023-05-14T07:48:21.469Z,20
2023-05-14T07:50:52.065Z,21
2023-05-14T07:53:22.300Z,21
2023-05-14T07:55:52.823Z,36
2023-05-14T07:58:23.223Z,23
2023-05-14T08:00:53.873Z,27
2023-05-14T08:03:24.695Z,28
2023-05-14T08:05:55.926Z,22
2023-05-14T08:08:26.211Z,27
2023-05-14T08:10:57.101Z,28
2023-05-14T08:13:27.343Z,28
2023-05-14T08:15:57.744Z,20
2023-05-14T08:18:28.490Z,26
2023-05-14T08:20:58.844Z,20
2023-05-14T08:23:29.499Z,26
2023-05-14T08:26:00.055Z,30
2023-05-14T08:28:30.313Z,21
2023-05-14T08:31:01.704Z,20
2023-05-14T08:33:32.376Z,36
2023-05-14T08:36:02.453Z,28
2023-05-14T08:38:32.970Z,33
2023-05-14T08:41:03.308Z,47
2023-05-14T08:43:34.010Z,26
2023-05-14T08:46:04.000Z,28
2023-05-14T08:48:34.701Z,23
2023-05-14T08:51:05.059Z,26
2023-05-14T08:53:35.521Z,28
2023-05-14T08:56:05.760Z,32
2023-05-14T08:58:35.883Z,24
2023-05-14T09:01:05.964Z,22
2023-05-14T09:03:38.993Z,24
2023-05-14T09:06:09.108Z,24
2023-05-14T09:08:39.575Z,24
2023-05-14T09:11:09.649Z,29
2023-05-14T09:13:39.876Z,28
2023-05-14T09:16:10.670Z,32
2023-05-14T09:18:41.070Z,28
2023-05-14T09:21:11.560Z,33
2023-05-14T09:23:42.391Z,25
2023-05-14T09:26:12.623Z,44
2023-05-14T09:28:42.746Z,27
2023-05-14T09:31:13.248Z,16
2023-05-14T09:33:43.610Z,16
2023-05-14T09:36:13.812Z,20
2023-05-14T09:38:44.156Z,32
2023-05-14T09:41:15.873Z,15
2023-05-14T09:43:46.638Z,16
2023-05-14T09:46:16.890Z,20
2023-05-14T09:48:47.682Z,28
2023-05-14T09:51:17.950Z,16
2023-05-14T09:53:48.144Z,17
2023-05-14T09:56:19.497Z,20
2023-05-14T09:58:49.825Z,16
2023-05-14T10:01:24.068Z,16
2023-05-14T10:03:55.478Z,20
2023-05-14T10:06:26.376Z,16
2023-05-14T10:08:57.222Z,20
2023-05-14T10:11:28.280Z,22
2023-05-14T10:13:58.880Z,24
2023-05-14T10:16:30.719Z,21
2023-05-14T10:19:01.185Z,16
2023-05-14T10:21:32.249Z,18
2023-05-14T10:24:03.168Z,16
2023-05-14T10:26:33.559Z,20
2023-05-14T10:29:04.365Z,16
2023-05-14T10:31:34.996Z,24
2023-05-14T10:34:05.468Z,16
2023-05-14T10:36:35.988Z,16
2023-05-14T10:39:06.443Z,12
2023-05-14T10:41:42.036Z,16
2023-05-14T10:44:12.596Z,23
2023-05-14T10:46:43.391Z,16
2023-05-14T10:49:13.923Z,12
2023-05-14T10:51:46.433Z,18
2023-05-14T10:54:18.018Z,12
2023-05-14T10:56:48.380Z,16
2023-05-14T10:59:19.109Z,11
2023-05-14T11:01:49.412Z,8
2023-05-14T11:04:19.704Z,12
2023-05-14T11:06:49.882Z,12
2023-05-14T11:09:21.409Z,8
2023-05-14T11:11:51.743Z,8
2023-05-14T11:14:21.972Z,11
2023-05-14T11:16:54.208Z,10
2023-05-14T11:19:24.600Z,7
2023-05-14T11:21:54.604Z,9
2023-05-14T11:24:25.030Z,8
2023-05-14T11:26:55.479Z,8
2023-05-14T11:29:25.855Z,12
2023-05-14T11:31:56.897Z,11
2023-05-14T11:34:27.304Z,12
2023-05-14T11:36:58.328Z,8
2023-05-14T11:39:29.664Z,10
2023-05-14T11:42:00.370Z,33
2023-05-14T11:44:30.819Z,8
2023-05-14T11:47:01.198Z,8
2023-05-14T11:49:31.703Z,8
2023-05-14T11:52:02.176Z,14
2023-05-14T11:54:32.483Z,12
2023-05-14T11:57:03.189Z,16
2023-05-14T11:59:33.657Z,16
2023-05-14T12:02:04.415Z,12
2023-05-14T12:04:34.850Z,12
2023-05-14T12:07:05.367Z,20
2023-05-14T12:09:35.311Z,4
2023-05-14T12:12:06.095Z,12
2023-05-14T12:14:36.523Z,12
2023-05-14T12:17:07.363Z,16
2023-05-14T12:19:38.033Z,8
2023-05-14T12:22:08.582Z,8
2023-05-14T12:24:39.310Z,8
2023-05-14T12:27:10.132Z,8
2023-05-14T12:29:41.007Z,8
2023-05-14T12:32:11.934Z,20
2023-05-14T12:34:42.717Z,24
2023-05-14T12:37:13.409Z,20
2023-05-14T12:39:44.038Z,8
2023-05-14T12:42:15.168Z,8
2023-05-14T12:44:45.505Z,12
2023-05-14T12:47:16.223Z,9
2023-05-14T12:49:46.621Z,8
2023-05-14T12:52:22.642Z,11
2023-05-14T12:54:48.070Z,13
2023-05-14T12:57:18.659Z,19
2023-05-14T12:59:49.214Z,12
2023-05-14T13:02:20.150Z,8
2023-05-14T13:04:50.478Z,8
2023-05-14T13:07:20.957Z,12
2023-05-14T13:09:51.275Z,19
2023-05-14T13:12:22.201Z,10
2023-05-14T13:14:52.989Z,23
2023-05-14T13:17:23.494Z,16
2023-05-14T13:19:54.215Z,19
2023-05-14T13:22:24.646Z,8
2023-05-14T13:24:55.310Z,8
2023-05-14T13:27:25.960Z,21
2023-05-14T13:29:56.153Z,16
2023-05-14T13:32:26.737Z,31
2023-05-14T13:34:57.319Z,28
2023-05-14T13:37:27.782Z,12
2023-05-14T13:39:57.957Z,8
2023-05-14T13:42:29.034Z,13
2023-05-14T13:44:59.538Z,11
2023-05-14T13:47:30.089Z,12
2023-05-14T13:50:00.420Z,24
2023-05-14T13:52:31.030Z,24
2023-05-14T13:55:01.695Z,13
2023-05-14T13:57:33.015Z,12
2023-05-14T14:00:03.624Z,12
2023-05-14T14:02:34.267Z,8
2023-05-14T14:05:02.925Z,12
2023-05-14T14:07:33.396Z,8
2023-05-14T14:10:03.754Z,12
2023-05-14T14:12:34.493Z,12
2023-05-14T14:15:04.711Z,12
2023-05-14T14:17:35.191Z,12
2023-05-14T14:20:05.491Z,12
2023-05-14T14:22:36.117Z,8
2023-05-14T14:25:06.535Z,16
2023-05-14T14:27:36.926Z,12
2023-05-14T14:30:07.096Z,12
2023-05-14T14:32:37.342Z,12
2023-05-14T14:35:07.747Z,20
2023-05-14T14:37:38.195Z,16
2023-05-14T14:40:08.573Z,15
2023-05-14T14:42:39.933Z,12
2023-05-14T14:45:10.182Z,16
2023-05-14T14:47:41.156Z,12
2023-05-14T14:50:13.590Z,16
2023-05-14T14:52:45.583Z,12
2023-05-14T14:55:14.705Z,12
2023-05-14T14:57:45.926Z,16
2023-05-14T15:00:16.763Z,12
2023-05-14T15:05:20.445Z,16
2023-05-14T15:07:50.224Z,12
2023-05-14T15:10:20.805Z,17
2023-05-14T15:12:51.763Z,12
2023-05-14T15:15:22.476Z,13
2023-05-14T15:17:52.754Z,15
2023-05-14T15:20:22.994Z,16
2023-05-14T15:22:53.572Z,15
2023-05-14T15:25:24.806Z,16
2023-05-14T15:27:55.247Z,21
2023-05-14T15:30:25.723Z,24
2023-05-14T15:32:56.145Z,20
2023-05-14T15:35:26.315Z,44
2023-05-14T15:37:56.615Z,53
2023-05-14T15:40:26.899Z,36
2023-05-14T15:42:57.116Z,43
2023-05-14T15:45:27.728Z,20
2023-05-14T15:47:56.933Z,25
2023-05-14T15:50:26.209Z,16
2023-05-14T15:52:56.443Z,16
2023-05-14T15:55:26.560Z,22
2023-05-14T15:57:57.695Z,16
2023-05-14T16:00:27.866Z,12
2023-05-14T16:02:58.428Z,12
2023-05-14T16:05:28.682Z,16
2023-05-14T16:07:59.056Z,17
2023-05-14T16:10:29.817Z,16
2023-05-14T16:13:00.558Z,17
2023-05-14T16:15:29.281Z,16
2023-05-14T16:18:00.569Z,20
2023-05-14T16:20:30.909Z,16
2023-05-14T16:23:01.265Z,16
2023-05-14T16:25:31.719Z,21
2023-05-14T16:28:02.042Z,20
2023-05-14T16:30:34.279Z,16
2023-05-14T16:33:05.273Z,16
2023-05-14T16:35:35.924Z,16
2023-05-14T16:38:06.486Z,16
2023-05-14T16:40:37.404Z,16
2023-05-14T16:43:07.839Z,16
2023-05-14T16:45:38.285Z,13
2023-05-14T16:48:09.305Z,16
2023-05-14T16:50:39.740Z,16
2023-05-14T16:53:10.358Z,16
2023-05-14T16:55:41.088Z,15
2023-05-14T16:58:11.708Z,16
2023-05-14T17:00:42.392Z,17
2023-05-14T17:03:12.580Z,20
2023-05-14T17:05:43.853Z,16
2023-05-14T17:08:14.070Z,16
2023-05-14T17:10:44.424Z,16
2023-05-14T17:13:14.652Z,16
2023-05-14T17:15:45.975Z,16
2023-05-14T17:18:17.009Z,16
2023-05-14T17:20:45.845Z,19
2023-05-14T17:23:16.219Z,19
2023-05-14T17:25:46.722Z,21
2023-05-14T17:28:16.913Z,20
2023-05-14T17:30:47.046Z,20
2023-05-14T17:33:18.913Z,17
2023-05-14T17:35:52.769Z,16
2023-05-14T17:38:23.489Z,16
2023-05-14T17:40:54.777Z,20
2023-05-14T17:43:24.807Z,20
2023-05-14T17:45:56.937Z,19
2023-05-14T17:48:40.999Z,16
2023-05-14T17:51:11.210Z,20
2023-05-14T17:53:41.330Z,16
2023-05-14T17:56:14.498Z,16
2023-05-14T17:58:47.283Z,16
2023-05-14T18:04:00.598Z,16
2023-05-14T18:06:31.387Z,28
2023-05-14T18:09:02.545Z,24
2023-05-14T18:11:32.068Z,34
2023-05-14T18:14:07.901Z,35
2023-05-14T18:16:36.336Z,20
2023-05-14T18:19:06.614Z,28
2023-05-14T18:21:37.097Z,20
2023-05-14T18:24:07.300Z,20
2023-05-14T18:26:37.724Z,30
2023-05-14T18:29:07.676Z,24
2023-05-14T18:31:37.762Z,23
2023-05-14T18:34:08.088Z,32
2023-05-14T18:36:38.214Z,21
2023-05-14T18:39:08.869Z,32
2023-05-14T18:41:39.320Z,21
2023-05-14T18:44:15.319Z,24
2023-05-14T18:46:46.062Z,24
2023-05-14T18:49:16.325Z,32
2023-05-14T18:51:46.942Z,28
2023-05-14T18:54:23.814Z,28
2023-05-14T18:56:54.308Z,24
2023-05-14T18:59:24.780Z,25
2023-05-14T19:02:00.541Z,28
2023-05-14T19:04:29.755Z,28
2023-05-14T19:06:59.731Z,24
2023-05-14T19:09:30.147Z,28
2023-05-14T19:12:07.100Z,28
2023-05-14T19:14:37.601Z,29
2023-05-14T19:17:07.986Z,24
2023-05-14T19:19:39.093Z,31
2023-05-14T19:22:09.554Z,32
2023-05-14T19:24:39.841Z,24
2023-05-14T19:27:10.584Z,33
2023-05-14T19:29:41.018Z,30
2023-05-14T19:32:11.553Z,28
2023-05-14T19:34:42.136Z,28
2023-05-14T19:37:12.676Z,36
2023-05-14T19:39:42.919Z,28
2023-05-14T19:42:18.946Z,24
2023-05-14T19:44:49.742Z,26
2023-05-14T19:47:25.226Z,32
2023-05-14T19:49:56.975Z,29
2023-05-14T19:52:27.158Z,32
2023-05-14T19:54:57.597Z,24
2023-05-14T19:57:27.952Z,26
2023-05-14T19:59:58.470Z,28
2023-05-14T20:02:34.855Z,25
2023-05-14T20:05:05.488Z,28
2023-05-14T20:07:36.829Z,25
2023-05-14T20:10:06.498Z,26
2023-05-14T20:12:37.052Z,27
2023-05-14T20:15:07.450Z,24
2023-05-14T20:17:39.365Z,28
2023-05-14T20:20:09.831Z,24
2023-05-14T20:22:40.057Z,21
2023-05-14T20:25:10.890Z,28
2023-05-14T20:27:41.929Z,27
2023-05-14T20:30:13.322Z,26
2023-05-14T20:32:43.396Z,24
2023-05-14T20:35:13.636Z,24
2023-05-14T20:37:44.298Z,31
2023-05-14T20:40:14.782Z,28
2023-05-14T20:42:44.988Z,29
2023-05-14T20:45:15.288Z,29
2023-05-14T20:47:45.785Z,24
2023-05-14T20:50:16.243Z,24
2023-05-14T20:52:46.855Z,25
2023-05-14T20:55:17.259Z,23
2023-05-14T20:57:48.184Z,24
2023-05-14T21:00:19.295Z,28
2023-05-14T21:02:49.953Z,24
2023-05-14T21:05:19.911Z,32
2023-05-14T21:07:50.830Z,28
2023-05-14T21:10:21.216Z,24
2023-05-14T21:12:51.792Z,28
2023-05-14T21:15:22.949Z,26
2023-05-14T21:17:53.615Z,30
2023-05-14T21:20:23.910Z,20
2023-05-14T21:22:54.978Z,32
2023-05-14T21:25:25.817Z,28
2023-05-14T21:27:56.525Z,28
2023-05-14T21:30:28.254Z,20
2023-05-14T21:33:06.700Z,30
2023-05-14T21:35:38.280Z,29
2023-05-14T21:38:10.334Z,31
2023-05-14T21:40:41.017Z,27
2023-05-14T21:43:15.139Z,28
2023-05-14T21:45:48.466Z,32
2023-05-14T21:48:20.280Z,28
2023-05-14T21:50:51.511Z,28
2023-05-14T21:53:22.192Z,32
2023-05-14T21:55:52.640Z,28
2023-05-14T21:58:22.096Z,28
2023-05-14T22:00:52.638Z,28
2023-05-14T22:03:23.306Z,28
2023-05-14T22:05:53.627Z,24
2023-05-14T22:08:28.270Z,24
2023-05-14T22:11:06.432Z,24
2023-05-14T22:13:36.390Z,28
2023-05-14T22:16:13.087Z,28
2023-05-14T22:18:41.495Z,27
2023-05-14T22:21:12.285Z,24
2023-05-14T22:23:43.214Z,24
2023-05-14T22:26:13.625Z,24
2023-05-14T22:28:45.582Z,28
2023-05-14T22:31:15.915Z,28
2023-05-14T22:33:46.343Z,24
2023-05-14T22:36:17.005Z,24
2023-05-14T22:38:47.758Z,24
2023-05-14T22:41:19.034Z,28
2023-05-14T22:43:49.823Z,24
2023-05-14T22:46:20.774Z,28
2023-05-14T22:48:51.364Z,29
2023-05-14T22:51:22.315Z,27
2023-05-14T22:53:53.348Z,28
2023-05-14T22:56:24.088Z,24
2023-05-14T22:58:55.487Z,28
2023-05-14T23:01:27.110Z,24
2023-05-14T23:03:57.460Z,27
2023-05-14T23:06:28.064Z,25
2023-05-14T23:08:59.293Z,28
2023-05-14T23:11:30.072Z,24
2023-05-14T23:14:00.803Z,21
2023-05-14T23:16:31.823Z,28
2023-05-14T23:19:03.814Z,27
2023-05-14T23:21:34.604Z,28
2023-05-14T23:24:05.085Z,27
2023-05-14T23:26:36.071Z,24
2023-05-14T23:29:07.409Z,28
2023-05-14T23:31:38.349Z,28
2023-05-14T23:34:09.497Z,24
2023-05-14T23:36:40.471Z,24
2023-05-14T23:39:11.825Z,28
2023-05-14T23:41:42.414Z,24
2023-05-14T23:44:13.766Z,24
2023-05-14T23:46:45.828Z,24
2023-05-14T23:49:16.401Z,25
2023-05-14T23:51:47.768Z,26
2023-05-14T23:54:18.664Z,24
2023-05-14T23:56:49.539Z,28
2023-05-14T23:59:20.956Z,21
